createdAt,value
2023-05-11T00:02:27.746Z,61.40
2023-05-11T00:04:56.232Z,62.88
2023-05-11T00:07:24.560Z,62.29
2023-05-11T00:09:52.718Z,63.66
2023-05-11T00:12:20.798Z,65.84
2023-05-11T00:14:49.003Z,68.59
2023-05-11T00:17:19.191Z,69.82
2023-05-11T00:19:47.647Z,70.34
2023-05-11T00:22:15.832Z,70.29
2023-05-11T00:24:46.447Z,70.15
2023-05-11T00:27:14.616Z,70.21
2023-05-11T00:29:43.135Z,68.43
2023-05-11T00:32:12.376Z,67.52
2023-05-11T00:34:40.954Z,67.90
2023-05-11T00:37:09.558Z,70.02
2023-05-11T00:39:40.927Z,68.19
2023-05-11T00:42:08.995Z,67.04
2023-05-11T00:44:37.232Z,66.86
2023-05-11T00:47:05.839Z,67.10
2023-05-11T00:49:34.442Z,66.67
2023-05-11T00:52:03.405Z,67.26
2023-05-11T00:54:32.127Z,68.78
2023-05-11T00:57:00.924Z,69.05
2023-05-11T00:59:29.445Z,68.50
2023-05-11T01:01:58.253Z,68.80
2023-05-11T01:04:26.981Z,68.34
2023-05-11T01:07:14.401Z,68.93
2023-05-11T01:09:48.632Z,69.81
2023-05-11T01:12:49.154Z,69.86
2023-05-11T01:15:53.312Z,70.01
2023-05-11T01:18:28.195Z,70.53
2023-05-11T01:21:00.394Z,72.01
2023-05-11T01:23:53.354Z,72.89
2023-05-11T01:26:47.494Z,73.33
2023-05-11T01:29:41.983Z,72.43
2023-05-11T01:32:18.070Z,72.33
2023-05-11T01:34:46.963Z,72.44
2023-05-11T01:37:19.975Z,72.01
2023-05-11T01:39:58.509Z,69.94
2023-05-11T01:42:33.746Z,69.15
2023-05-11T01:45:02.558Z,68.24
2023-05-11T01:47:31.138Z,67.01
2023-05-11T01:49:59.923Z,66.11
2023-05-11T01:52:28.741Z,65.04
2023-05-11T01:54:58.276Z,64.34
2023-05-11T01:57:27.127Z,63.46
2023-05-11T01:59:55.487Z,63.30
2023-05-11T02:02:24.109Z,62.90
2023-05-11T02:04:52.378Z,62.70
2023-05-11T02:07:21.526Z,62.48
2023-05-11T02:09:50.625Z,62.11
2023-05-11T02:12:20.197Z,61.47
2023-05-11T02:14:50.131Z,60.25
2023-05-11T02:17:19.483Z,59.34
2023-05-11T02:19:47.805Z,58.34
2023-05-11T02:22:16.193Z,57.36
2023-05-11T02:24:44.646Z,57.21
2023-05-11T02:27:13.374Z,56.99
2023-05-11T02:29:41.549Z,57.34
2023-05-11T02:32:16.368Z,57.45
2023-05-11T02:34:50.800Z,57.06
2023-05-11T02:37:21.714Z,56.94
2023-05-11T02:39:57.201Z,57.03
2023-05-11T02:42:27.447Z,56.60
2023-05-11T02:45:03.649Z,57.14
2023-05-11T02:47:37.074Z,58.64
2023-05-11T02:50:05.921Z,60.65
2023-05-11T02:52:44.542Z,60.18
2023-05-11T02:55:14.812Z,58.63
2023-05-11T02:57:44.632Z,58.15
2023-05-11T03:00:13.704Z,57.65
2023-05-11T03:02:42.214Z,56.76
2023-05-11T03:05:10.368Z,56.34
2023-05-11T03:07:38.646Z,57.00
2023-05-11T03:10:08.582Z,56.13
2023-05-11T03:12:37.349Z,54.94
2023-05-11T03:15:08.087Z,54.14
2023-05-11T03:17:37.702Z,52.66
2023-05-11T03:20:07.899Z,51.38
2023-05-11T03:22:37.565Z,50.81
2023-05-11T03:25:06.449Z,51.22
2023-05-11T03:27:35.248Z,51.08
2023-05-11T03:30:05.887Z,50.42
2023-05-11T03:32:34.752Z,52.65
2023-05-11T03:35:03.340Z,53.52
2023-05-11T03:37:32.074Z,52.52
2023-05-11T03:40:01.676Z,50.87
2023-05-11T03:42:31.053Z,49.21
2023-05-11T03:45:00.114Z,46.83
2023-05-11T03:47:29.524Z,44.63
2023-05-11T03:50:00.160Z,43.85
2023-05-11T03:52:28.950Z,43.01
2023-05-11T03:54:57.464Z,42.38
2023-05-11T03:57:26.729Z,41.80
2023-05-11T03:59:55.032Z,40.32
2023-05-11T04:02:25.084Z,38.31
2023-05-11T04:04:54.031Z,34.93
2023-05-11T04:07:47.669Z,32.47
2023-05-11T04:10:15.908Z,31.45
2023-05-11T04:12:45.031Z,30.33
2023-05-11T04:15:15.607Z,29.28
2023-05-11T04:17:44.066Z,28.59
2023-05-11T04:20:12.611Z,26.31
2023-05-11T04:22:41.406Z,25.11
2023-05-11T04:25:09.712Z,22.63
2023-05-11T04:27:38.262Z,21.50
2023-05-11T04:30:07.273Z,19.03
2023-05-11T04:32:35.945Z,19.30
2023-05-11T04:35:04.301Z,18.70
2023-05-11T04:37:32.854Z,17.79
2023-05-11T04:40:01.093Z,16.47
2023-05-11T04:42:30.871Z,15.78
2023-05-11T04:44:58.980Z,15.62
2023-05-11T04:47:27.169Z,15.64
2023-05-11T04:49:55.508Z,15.19
2023-05-11T04:52:24.116Z,15.16
2023-05-11T04:54:52.654Z,15.10
2023-05-11T04:57:24.064Z,14.54
2023-05-11T04:59:53.501Z,14.73
2023-05-11T05:02:21.789Z,15.10
2023-05-11T05:04:49.686Z,14.67
2023-05-11T05:07:17.744Z,14.66
2023-05-11T05:09:45.861Z,14.99
2023-05-11T05:12:14.081Z,15.07
2023-05-11T05:14:42.579Z,15.48
2023-05-11T05:17:11.084Z,15.23
2023-05-11T05:19:39.458Z,15.63
2023-05-11T05:22:07.945Z,15.56
2023-05-11T05:24:36.289Z,15.12
2023-05-11T05:27:04.632Z,14.41
2023-05-11T05:29:32.866Z,14.99
2023-05-11T05:32:01.050Z,16.22
2023-05-11T05:34:29.448Z,16.47
2023-05-11T05:37:00.931Z,15.65
2023-05-11T05:39:29.140Z,16.34
2023-05-11T05:41:57.647Z,16.61
2023-05-11T05:44:26.425Z,16.65
2023-05-11T05:46:55.025Z,16.20
2023-05-11T05:49:26.179Z,16.21
2023-05-11T05:51:55.446Z,15.96
2023-05-11T05:54:23.879Z,14.92
2023-05-11T05:56:52.404Z,15.08
2023-05-11T05:59:23.722Z,15.24
2023-05-11T06:01:52.131Z,15.51
2023-05-11T06:04:20.251Z,15.15
2023-05-11T06:06:49.123Z,15.76
2023-05-11T06:09:17.603Z,16.37
2023-05-11T06:11:46.208Z,16.24
2023-05-11T06:14:14.266Z,16.23
2023-05-11T06:16:42.967Z,16.38
2023-05-11T06:19:14.009Z,16.53
2023-05-11T06:21:43.962Z,15.59
2023-05-11T06:24:12.332Z,15.26
2023-05-11T06:26:41.373Z,15.10
2023-05-11T06:29:09.288Z,15.09
2023-05-11T06:31:37.565Z,15.16
2023-05-11T06:34:06.172Z,15.20
2023-05-11T06:36:35.600Z,16.20
2023-05-11T06:39:04.998Z,15.97
2023-05-11T06:41:33.134Z,16.16
2023-05-11T06:44:01.744Z,15.74
2023-05-11T06:46:30.607Z,15.81
2023-05-11T06:48:58.983Z,15.87
2023-05-11T06:51:27.440Z,16.31
2023-05-11T06:53:55.767Z,17.10
2023-05-11T06:56:24.092Z,17.77
2023-05-11T06:58:52.140Z,18.92
2023-05-11T07:01:20.486Z,20.59
2023-05-11T07:03:50.886Z,23.24
2023-05-11T07:06:20.218Z,25.06
2023-05-11T07:08:48.632Z,26.85
2023-05-11T07:11:16.862Z,27.74
2023-05-11T07:13:45.742Z,28.02
2023-05-11T07:16:14.900Z,28.19
2023-05-11T07:18:44.388Z,27.28
2023-05-11T07:21:12.342Z,27.90
2023-05-11T07:23:40.456Z,28.39
2023-05-11T07:26:11.259Z,26.77
2023-05-11T07:28:39.805Z,26.30
2023-05-11T07:31:07.967Z,26.19
2023-05-11T07:33:38.788Z,26.04
2023-05-11T07:36:07.707Z,26.91
2023-05-11T07:38:38.026Z,26.93
2023-05-11T07:41:07.116Z,26.52
2023-05-11T07:43:36.075Z,26.96
2023-05-11T07:46:04.661Z,27.65
2023-05-11T07:48:32.884Z,27.92
2023-05-11T07:51:03.980Z,28.12
2023-05-11T07:53:32.261Z,28.29
2023-05-11T07:56:01.147Z,27.96
2023-05-11T07:58:29.795Z,27.43
2023-05-11T08:00:58.117Z,27.27
2023-05-11T08:03:27.164Z,26.36
2023-05-11T08:05:55.339Z,27.11
2023-05-11T08:08:25.635Z,27.09
2023-05-11T08:10:53.935Z,27.40
2023-05-11T08:13:22.167Z,27.09
2023-05-11T08:15:50.517Z,26.87
2023-05-11T08:18:19.333Z,26.05
2023-05-11T08:20:47.430Z,26.38
2023-05-11T08:23:18.696Z,26.39
2023-05-11T08:25:51.830Z,27.01
2023-05-11T08:28:19.952Z,27.17
2023-05-11T08:30:47.984Z,27.39
2023-05-11T08:33:35.783Z,26.33
2023-05-11T08:36:06.802Z,26.45
2023-05-11T08:38:36.004Z,25.48
2023-05-11T08:41:05.276Z,25.49
2023-05-11T08:43:35.560Z,25.57
2023-05-11T08:46:08.685Z,26.15
2023-05-11T08:48:38.104Z,25.38
2023-05-11T08:51:06.790Z,25.51
2023-05-11T08:53:34.943Z,24.77
2023-05-11T08:56:07.098Z,24.95
2023-05-11T08:58:38.128Z,25.18
2023-05-11T09:01:07.756Z,25.45
2023-05-11T09:03:39.943Z,27.01
2023-05-11T09:06:09.475Z,27.66
2023-05-11T09:08:38.877Z,27.94
2023-05-11T09:11:07.903Z,27.74
2023-05-11T09:13:38.912Z,26.43
2023-05-11T09:16:23.482Z,25.89
2023-05-11T09:19:01.073Z,25.67
2023-05-11T09:21:32.928Z,25.61
2023-05-11T09:24:01.493Z,26.15
2023-05-11T09:26:34.326Z,27.34
2023-05-11T09:29:03.209Z,27.02
2023-05-11T09:31:43.134Z,27.02
2023-05-11T09:34:12.247Z,27.18
2023-05-11T09:36:41.708Z,27.27
2023-05-11T09:39:15.389Z,27.09
2023-05-11T09:42:15.618Z,27.56
2023-05-11T09:44:44.848Z,27.59
2023-05-11T09:47:17.831Z,27.10
2023-05-11T09:49:47.377Z,27.38
2023-05-11T09:52:19.479Z,26.87
2023-05-11T09:54:52.264Z,26.82
2023-05-11T09:57:28.916Z,26.66
2023-05-11T09:59:58.553Z,25.57
2023-05-11T10:02:31.556Z,25.41
2023-05-11T10:05:12.417Z,25.19
2023-05-11T10:07:40.850Z,25.07
2023-05-11T10:10:12.128Z,25.30
2023-05-11T10:12:40.804Z,25.51
2023-05-11T10:15:10.928Z,25.12
2023-05-11T10:17:39.234Z,25.00
2023-05-11T10:20:08.069Z,24.88
2023-05-11T10:22:36.751Z,25.19
2023-05-11T10:25:06.891Z,25.16
2023-05-11T10:27:35.055Z,25.41
2023-05-11T10:30:04.459Z,25.97
2023-05-11T10:32:37.777Z,26.36
2023-05-11T10:35:06.795Z,25.94
2023-05-11T10:37:35.954Z,25.53
2023-05-11T10:40:05.257Z,25.02
2023-05-11T10:42:53.197Z,24.65
2023-05-11T10:45:41.685Z,24.99
2023-05-11T10:48:36.636Z,24.50
2023-05-11T10:51:32.472Z,24.49
2023-05-11T10:54:19.431Z,24.41
2023-05-11T10:57:01.254Z,24.21
2023-05-11T11:00:11.011Z,24.25
2023-05-11T11:02:39.929Z,24.51
2023-05-11T11:05:11.201Z,25.11
2023-05-11T11:08:06.289Z,24.64
2023-05-11T11:10:49.766Z,24.72
2023-05-11T11:13:24.013Z,24.54
2023-05-11T11:15:58.344Z,24.31
2023-05-11T11:18:28.264Z,25.25
2023-05-11T11:20:58.538Z,25.41
2023-05-11T11:23:42.270Z,25.53
2023-05-11T11:26:19.243Z,25.88
2023-05-11T11:29:01.006Z,26.08
2023-05-11T11:31:30.833Z,25.75
2023-05-11T11:34:20.145Z,25.91
2023-05-11T11:37:04.309Z,26.20
2023-05-11T11:39:41.951Z,26.32
2023-05-11T11:42:10.934Z,25.98
2023-05-11T11:44:40.204Z,25.82
2023-05-11T11:47:22.314Z,26.40
2023-05-11T11:49:54.944Z,26.34
2023-05-11T11:52:29.087Z,25.74
2023-05-11T11:55:02.458Z,25.69
2023-05-11T11:57:38.373Z,25.86
2023-05-11T12:00:11.151Z,26.75
2023-05-11T12:02:44.932Z,26.62
2023-05-11T12:05:15.437Z,26.69
2023-05-11T12:07:49.111Z,27.15
2023-05-11T12:10:18.597Z,26.10
2023-05-11T12:12:48.626Z,25.50
2023-05-11T12:15:27.934Z,25.29
2023-05-11T12:17:57.131Z,24.47
2023-05-11T12:20:26.477Z,24.35
2023-05-11T12:22:54.546Z,24.30
2023-05-11T12:25:22.805Z,24.59
2023-05-11T12:28:03.351Z,25.69
2023-05-11T12:30:34.726Z,26.03
2023-05-11T12:33:05.039Z,26.65
2023-05-11T12:35:41.451Z,26.96
2023-05-11T12:38:11.885Z,27.51
2023-05-11T12:40:40.193Z,27.67
2023-05-11T12:43:10.040Z,28.71
2023-05-11T12:45:40.672Z,29.05
2023-05-11T12:48:11.217Z,28.72
2023-05-11T12:50:46.805Z,28.54
2023-05-11T12:53:16.700Z,28.40
2023-05-11T12:55:44.951Z,27.96
2023-05-11T12:58:21.893Z,28.00
2023-05-11T13:00:56.698Z,28.51
2023-05-11T13:03:30.833Z,28.20
2023-05-11T13:06:19.670Z,28.47
2023-05-11T13:08:49.112Z,27.81
2023-05-11T13:11:25.083Z,28.03
2023-05-11T13:13:54.415Z,28.88
2023-05-11T13:16:26.849Z,29.67
2023-05-11T13:19:03.755Z,28.98
2023-05-11T13:21:33.812Z,28.68
2023-05-11T13:24:04.368Z,28.09
2023-05-11T13:26:33.085Z,27.83
2023-05-11T13:31:32.375Z,27.51
2023-05-11T13:34:01.112Z,26.74
2023-05-11T13:36:30.035Z,26.99
2023-05-11T13:38:58.026Z,26.89
2023-05-11T13:41:26.411Z,26.33
2023-05-11T13:43:55.762Z,26.49
2023-05-11T13:46:23.852Z,25.74
2023-05-11T13:48:52.042Z,24.92
2023-05-11T13:51:20.009Z,25.21
2023-05-11T13:53:48.624Z,25.36
2023-05-11T13:56:19.872Z,25.50
2023-05-11T13:58:49.122Z,25.46
2023-05-11T14:01:17.620Z,25.89
2023-05-11T14:03:45.741Z,26.22
2023-05-11T14:06:14.447Z,26.18
2023-05-11T14:08:42.505Z,27.24
2023-05-11T14:11:12.536Z,27.46
2023-05-11T14:13:41.643Z,27.57
2023-05-11T14:16:10.743Z,27.38
2023-05-11T14:18:39.259Z,27.56
2023-05-11T14:21:07.578Z,27.36
2023-05-11T14:23:39.032Z,27.62
2023-05-11T14:26:09.276Z,27.74
2023-05-11T14:28:37.678Z,27.83
2023-05-11T14:31:06.346Z,28.34
2023-05-11T14:33:34.360Z,28.56
2023-05-11T14:36:03.449Z,28.92
2023-05-11T14:38:32.693Z,28.99
2023-05-11T14:41:02.641Z,28.93
2023-05-11T14:43:31.841Z,28.80
2023-05-11T14:45:59.909Z,28.24
2023-05-11T14:48:27.941Z,27.56
2023-05-11T14:50:55.931Z,27.65
2023-05-11T14:53:24.736Z,27.34
2023-05-11T14:55:53.351Z,27.15
2023-05-11T14:58:21.574Z,27.35
2023-05-11T15:00:50.002Z,27.72
2023-05-11T15:03:18.764Z,27.58
2023-05-11T15:05:48.911Z,28.10
2023-05-11T15:08:29.182Z,26.92
2023-05-11T15:10:58.957Z,26.98
2023-05-11T15:13:27.523Z,26.36
2023-05-11T15:15:56.668Z,25.96
2023-05-11T15:18:25.392Z,26.12
2023-05-11T15:20:53.524Z,26.19
2023-05-11T15:23:22.040Z,26.38
2023-05-11T15:25:50.321Z,26.61
2023-05-11T15:28:18.696Z,27.09
2023-05-11T15:30:47.733Z,27.48
2023-05-11T15:33:16.823Z,27.76
2023-05-11T15:35:45.067Z,27.57
2023-05-11T15:38:13.360Z,27.32
2023-05-11T15:40:57.494Z,27.60
2023-05-11T15:43:25.778Z,28.84
2023-05-11T15:45:54.703Z,28.93
2023-05-11T15:48:22.952Z,29.13
2023-05-11T15:50:51.343Z,29.10
2023-05-11T15:53:19.733Z,28.94
2023-05-11T15:55:51.597Z,29.50
2023-05-11T15:58:19.720Z,29.35
2023-05-11T16:00:49.209Z,29.35
2023-05-11T16:03:20.148Z,28.95
2023-05-11T16:05:48.260Z,29.04
2023-05-11T16:08:16.293Z,28.95
2023-05-11T16:10:44.488Z,29.12
2023-05-11T16:13:12.927Z,28.79
2023-05-11T16:15:41.311Z,28.67
2023-05-11T16:18:10.758Z,28.56
2023-05-11T16:20:39.247Z,28.76
2023-05-11T16:23:07.428Z,28.80
2023-05-11T16:25:36.450Z,28.79
2023-05-11T16:28:05.808Z,28.78
2023-05-11T16:30:34.085Z,28.99
2023-05-11T16:33:02.330Z,29.15
2023-05-11T16:35:32.538Z,29.38
2023-05-11T16:38:00.866Z,29.44
2023-05-11T16:40:29.303Z,29.51
2023-05-11T16:42:57.606Z,29.59
2023-05-11T16:45:25.696Z,29.49
2023-05-11T16:47:57.582Z,29.50
2023-05-11T16:50:25.568Z,29.71
2023-05-11T16:52:53.614Z,29.69
2023-05-11T16:55:21.728Z,29.67
2023-05-11T16:57:52.102Z,29.77
2023-05-11T17:00:20.868Z,30.08
2023-05-11T17:02:49.844Z,30.28
2023-05-11T17:05:21.397Z,30.27
2023-05-11T17:07:56.680Z,30.45
2023-05-11T17:10:27.268Z,30.58
2023-05-11T17:12:56.808Z,30.65
2023-05-11T17:15:27.279Z,30.73
2023-05-11T17:17:55.745Z,30.97
2023-05-11T17:20:24.130Z,31.10
2023-05-11T17:22:53.066Z,31.11
2023-05-11T17:25:21.356Z,31.22
2023-05-11T17:27:49.680Z,31.50
2023-05-11T17:30:18.529Z,31.55
2023-05-11T17:32:47.726Z,31.75
2023-05-11T17:35:16.847Z,31.90
2023-05-11T17:37:45.074Z,32.07
2023-05-11T17:40:13.209Z,32.16
2023-05-11T17:42:41.658Z,32.27
2023-05-11T17:45:10.333Z,32.45
2023-05-11T17:47:39.186Z,32.61
2023-05-11T17:50:07.982Z,32.56
2023-05-11T17:52:36.391Z,32.80
2023-05-11T17:55:06.872Z,33.09
2023-05-11T17:57:35.472Z,33.57
2023-05-11T18:00:04.186Z,33.83
2023-05-11T18:02:33.302Z,34.04
2023-05-11T18:05:02.434Z,33.73
2023-05-11T18:07:31.011Z,33.99
2023-05-11T18:09:59.867Z,33.98
2023-05-11T18:12:27.960Z,33.80
2023-05-11T18:14:56.310Z,33.89
2023-05-11T18:17:24.543Z,34.24
2023-05-11T18:19:53.106Z,34.91
2023-05-11T18:22:21.194Z,35.74
2023-05-11T18:24:49.440Z,36.20
2023-05-11T18:27:17.459Z,36.43
2023-05-11T18:29:48.010Z,35.90
2023-05-11T18:32:17.748Z,35.77
2023-05-11T18:34:47.100Z,36.17
2023-05-11T18:37:16.531Z,36.95
2023-05-11T18:39:44.923Z,37.05
2023-05-11T18:42:13.449Z,38.41
2023-05-11T18:44:41.844Z,39.26
2023-05-11T18:47:12.955Z,40.37
2023-05-11T18:49:42.406Z,41.36
2023-05-11T18:52:13.795Z,41.46
2023-05-11T18:54:42.619Z,41.22
2023-05-11T18:57:11.703Z,41.33
2023-05-11T18:59:39.984Z,40.83
2023-05-11T19:02:08.502Z,40.72
2023-05-11T19:04:38.009Z,40.20
2023-05-11T19:07:07.392Z,40.47
2023-05-11T19:09:35.954Z,39.96
2023-05-11T19:12:04.488Z,39.70
2023-05-11T19:14:35.334Z,39.75
2023-05-11T19:17:05.621Z,39.80
2023-05-11T19:19:34.693Z,39.76
2023-05-11T19:22:03.232Z,40.13
2023-05-11T19:24:32.048Z,40.19
2023-05-11T19:27:07.420Z,40.92
2023-05-11T19:29:36.260Z,41.79
2023-05-11T19:32:04.432Z,42.10
2023-05-11T19:34:35.937Z,42.43
2023-05-11T19:37:04.480Z,43.40
2023-05-11T19:39:38.123Z,44.02
2023-05-11T19:42:06.718Z,44.42
2023-05-11T19:44:38.122Z,44.85
2023-05-11T19:47:06.631Z,44.62
2023-05-11T19:49:34.858Z,44.81
2023-05-11T19:52:10.011Z,44.77
2023-05-11T19:54:38.276Z,45.03
2023-05-11T19:57:06.761Z,45.20
2023-05-11T19:59:37.811Z,45.23
2023-05-11T20:02:14.504Z,45.45
2023-05-11T20:04:48.593Z,45.68
2023-05-11T20:07:19.574Z,45.68
2023-05-11T20:09:47.773Z,45.77
2023-05-11T20:12:15.962Z,45.49
2023-05-11T20:14:44.382Z,45.31
2023-05-11T20:17:15.038Z,45.15
2023-05-11T20:19:45.723Z,45.45
2023-05-11T20:22:15.700Z,45.29
2023-05-11T20:24:54.356Z,45.18
2023-05-11T20:27:22.805Z,45.14
2023-05-11T20:29:53.930Z,45.56
2023-05-11T20:32:22.737Z,45.84
2023-05-11T20:34:53.831Z,45.02
2023-05-11T20:37:24.323Z,45.40
2023-05-11T20:39:52.554Z,45.51
2023-05-11T20:42:20.910Z,45.91
2023-05-11T20:44:54.172Z,45.86
2023-05-11T20:47:25.063Z,46.20
2023-05-11T20:49:55.419Z,46.32
2023-05-11T20:52:26.141Z,46.35
2023-05-11T20:54:54.607Z,46.96
2023-05-11T20:57:22.744Z,47.28
2023-05-11T21:02:22.071Z,47.12
2023-05-11T21:04:50.311Z,47.32
2023-05-11T21:07:18.479Z,47.53
2023-05-11T21:09:46.623Z,47.05
2023-05-11T21:12:15.286Z,47.10
2023-05-11T21:14:43.693Z,47.69
2023-05-11T21:17:12.469Z,47.60
2023-05-11T21:19:40.667Z,47.39
2023-05-11T21:22:09.669Z,47.40
2023-05-11T21:24:38.081Z,47.34
2023-05-11T21:27:06.475Z,47.07
2023-05-11T21:29:34.852Z,46.92
2023-05-11T21:32:02.716Z,46.99
2023-05-11T21:34:30.668Z,47.33
2023-05-11T21:37:00.034Z,47.35
2023-05-11T21:39:28.225Z,47.64
2023-05-11T21:41:57.118Z,48.33
2023-05-11T21:44:26.494Z,48.45
2023-05-11T21:46:57.446Z,48.58
2023-05-11T21:49:25.582Z,48.05
2023-05-11T21:51:55.686Z,47.80
2023-05-11T21:54:23.876Z,47.96
2023-05-11T21:56:52.681Z,47.59
2023-05-11T21:59:21.613Z,47.22
2023-05-11T22:01:49.974Z,46.76
2023-05-11T22:04:18.155Z,46.55
2023-05-11T22:06:46.400Z,46.41
2023-05-11T22:09:14.662Z,46.46
2023-05-11T22:11:48.176Z,46.43
2023-05-11T22:14:16.362Z,46.61
2023-05-11T22:16:44.702Z,46.65
2023-05-11T22:19:13.940Z,46.71
2023-05-11T22:21:42.539Z,46.58
2023-05-11T22:24:14.065Z,46.69
2023-05-11T22:26:42.088Z,46.85
2023-05-11T22:29:10.590Z,46.51
2023-05-11T22:31:38.718Z,47.26
2023-05-11T22:34:07.160Z,47.35
2023-05-11T22:36:36.003Z,46.85
2023-05-11T22:39:05.961Z,46.50
2023-05-11T22:41:34.908Z,46.38
2023-05-11T22:44:04.007Z,46.69
2023-05-11T22:46:32.575Z,47.17
2023-05-11T22:49:03.932Z,47.12
2023-05-11T22:51:32.786Z,47.39
2023-05-11T22:54:03.808Z,47.68
2023-05-11T22:56:32.177Z,47.44
2023-05-11T22:59:00.482Z,48.28
2023-05-11T23:01:31.977Z,48.45
2023-05-11T23:04:00.407Z,48.35
2023-05-11T23:06:29.655Z,47.88
2023-05-11T23:08:57.991Z,47.87
2023-05-11T23:11:26.871Z,47.83
2023-05-11T23:13:55.384Z,48.23
2023-05-11T23:16:23.506Z,47.68
2023-05-11T23:18:52.154Z,48.34
2023-05-11T23:21:20.448Z,48.08
2023-05-11T23:23:54.135Z,48.73
2023-05-11T23:26:23.835Z,48.56
2023-05-11T23:28:52.043Z,48.85
2023-05-11T23:31:20.105Z,50.61
2023-05-11T23:33:49.129Z,50.67
2023-05-11T23:36:17.842Z,51.79
2023-05-11T23:38:45.904Z,52.36
2023-05-11T23:41:13.844Z,53.29
2023-05-11T23:43:41.898Z,52.77
2023-05-11T23:46:10.118Z,52.93
2023-05-11T23:48:38.113Z,51.46
2023-05-11T23:51:06.466Z,51.17
2023-05-11T23:53:37.431Z,52.41
2023-05-11T23:56:05.794Z,53.83
2023-05-11T23:58:33.985Z,53.65
